Time;durP1;ratioP1;P1;durP2;ratioP2;P2;SDS_P1;SDS_P2;PMS_P1;PMS_P2;Temp;Humidity;BMP_temperature;BMP_pressure;BME280_temperature;BME280_humidity;BME280_pressure;Samples;Min_cycle;Max_cycle;Signal;HPM_P1;HPM_P2
2023/05/01 00:01:17;;;;;;;5.65;2.40;;;;;;;;;;7375615;19;20011;-69
2023/05/01 00:03:42;;;;;;;4.10;2.45;;;;;;;;;;7376338;19;20491;-69
2023/05/01 00:06:08;;;;;;;4.53;2.08;;;;;;;;;;7375261;19;20007;-69
2023/05/01 00:08:33;;;;;;;5.10;2.50;;;;;;;;;;7375908;19;19995;-69
2023/05/01 00:11:03;;;;;;;3.97;2.15;;;;;;;;;;7397030;19;20527;-69
2023/05/01 00:13:29;;;;;;;4.18;2.28;;;;;;;;;;7375194;19;20006;-69
2023/05/01 00:15:54;;;;;;;5.53;2.40;;;;;;;;;;7375032;19;20003;-69
2023/05/01 00:18:20;;;;;;;6.60;2.25;;;;;;;;;;7372890;19;20006;-69
2023/05/01 00:20:45;;;;;;;5.15;2.10;;;;;;;;;;7374868;19;20464;-70
2023/05/01 00:23:11;;;;;;;6.57;2.42;;;;;;;;;;7397103;19;20338;-69
2023/05/01 00:25:37;;;;;;;7.38;2.80;;;;;;;;;;7374117;19;20375;-69
2023/05/01 00:28:02;;;;;;;4.57;2.60;;;;;;;;;;7373257;19;20002;-69
2023/05/01 00:30:27;;;;;;;4.78;2.47;;;;;;;;;;7372632;19;20010;-70
2023/05/01 00:32:53;;;;;;;5.60;2.80;;;;;;;;;;7373587;19;20006;-69
2023/05/01 00:35:18;;;;;;;6.18;2.33;;;;;;;;;;7397001;19;20001;-69
2023/05/01 00:37:44;;;;;;;4.95;2.63;;;;;;;;;;7371460;19;20011;-69
2023/05/01 00:40:09;;;;;;;5.25;2.47;;;;;;;;;;7374579;19;20006;-69
2023/05/01 00:42:36;;;;;;;6.63;2.53;;;;;;;;;;7373509;19;20608;-69
2023/05/01 00:45:01;;;;;;;4.53;2.40;;;;;;;;;;7374990;19;20027;-69
2023/05/01 00:47:27;;;;;;;5.70;2.45;;;;;;;;;;7373782;19;20014;-70
2023/05/01 00:49:54;;;;;;;3.80;2.08;;;;;;;;;;7395739;19;20409;-69
2023/05/01 00:52:19;;;;;;;5.22;2.40;;;;;;;;;;7372124;19;20006;-69
2023/05/01 00:54:50;;;;;;;4.25;2.33;;;;;;;;;;7385363;19;20011;-69
2023/05/01 00:57:17;;;;;;;;;;;;;;;;;;7377582;19;20023;-69
2023/05/01 00:59:42;;;;;;;3.95;2.17;;;;;;;;;;7375276;19;20342;-69
2023/05/01 01:02:07;;;;;;;7.13;2.58;;;;;;;;;;7395698;19;20043;-69
2023/05/01 01:04:33;;;;;;;8.13;2.75;;;;;;;;;;7373628;19;20027;-69
2023/05/01 01:07:20;;;;;;;4.60;2.10;;;;;;;;;;7373494;19;20635;-69
2023/05/01 01:09:57;;;;;;;5.40;2.45;;;;;;;;;;7380866;19;20018;-69
2023/05/01 01:12:55;;;;;;;5.22;2.13;;;;;;;;;;7375958;19;20018;-69
2023/05/01 01:15:27;;;;;;;8.88;2.70;;;;;;;;;;7373418;19;20010;-69
2023/05/01 01:17:58;;;;;;;5.95;2.42;;;;;;;;;;7372906;19;20089;-69
2023/05/01 01:20:34;;;;;;;5.18;2.30;;;;;;;;;;7396944;19;20006;-69
2023/05/01 01:23:12;;;;;;;6.25;2.40;;;;;;;;;;7374966;19;20071;-69
2023/05/01 01:26:09;;;;;;;4.15;2.20;;;;;;;;;;7376477;19;20010;-69
2023/05/01 01:28:37;;;;;;;6.80;2.55;;;;;;;;;;7374907;19;20011;-69
2023/05/01 01:31:11;;;;;;;6.30;2.67;;;;;;;;;;7374191;19;20480;-69
2023/05/01 01:33:41;;;;;;;5.60;2.70;;;;;;;;;;7374734;19;20069;-69
2023/05/01 01:36:14;;;;;;;5.68;2.40;;;;;;;;;;7374079;19;20040;-69
2023/05/01 01:38:44;;;;;;;4.78;2.50;;;;;;;;;;7382334;19;20006;-69
2023/05/01 01:41:16;;;;;;;4.60;2.80;;;;;;;;;;7395990;19;19998;-69
2023/05/01 01:43:46;;;;;;;6.88;2.60;;;;;;;;;;7373416;19;20741;-69
2023/05/01 01:46:11;;;;;;;4.75;2.10;;;;;;;;;;7373245;19;20010;-68
2023/05/01 01:48:42;;;;;;;5.55;2.50;;;;;;;;;;7375126;19;20006;-69
2023/05/01 01:51:11;;;;;;;3.65;2.20;;;;;;;;;;7375799;19;20003;-69
2023/05/01 01:53:39;;;;;;;3.50;2.20;;;;;;;;;;7378200;19;19998;-69
2023/05/01 01:56:06;;;;;;;6.10;2.08;;;;;;;;;;7399155;19;20459;-69
2023/05/01 01:58:33;;;;;;;7.95;2.70;;;;;;;;;;7374272;19;20035;-69
2023/05/01 02:00:59;;;;;;;4.57;2.28;;;;;;;;;;7373404;19;20002;-69
2023/05/01 02:03:25;;;;;;;8.00;2.20;;;;;;;;;;7374073;19;20006;-69
2023/05/01 02:05:53;;;;;;;4.72;2.47;;;;;;;;;;7373525;19;20007;-70
2023/05/01 02:08:20;;;;;;;6.72;2.63;;;;;;;;;;7392631;19;20061;-69
2023/05/01 02:10:46;;;;;;;8.32;2.63;;;;;;;;;;7372234;19;20007;-69
2023/05/01 02:13:13;;;;;;;5.38;2.47;;;;;;;;;;7371895;19;20005;-69
2023/05/01 02:15:39;;;;;;;5.10;2.60;;;;;;;;;;7378249;19;20947;-69
2023/05/01 02:18:05;;;;;;;5.30;2.60;;;;;;;;;;7375147;19;20622;-69
2023/05/01 02:20:32;;;;;;;8.82;2.85;;;;;;;;;;7371171;19;20098;-69
2023/05/01 02:22:58;;;;;;;5.68;2.50;;;;;;;;;;7393212;19;20030;-69
2023/05/01 02:25:25;;;;;;;3.60;2.17;;;;;;;;;;7371842;19;20077;-69
2023/05/01 02:28:00;;;;;;;5.53;2.70;;;;;;;;;;7369524;19;20397;-69
2023/05/01 02:30:26;;;;;;;7.63;2.90;;;;;;;;;;7371102;19;20402;-69
2023/05/01 02:32:51;;;;;;;6.35;2.50;;;;;;;;;;7370820;19;20028;-69
2023/05/01 02:35:16;;;;;;;9.60;2.45;;;;;;;;;;7393111;19;20025;-68
2023/05/01 02:37:43;;;;;;;6.63;2.72;;;;;;;;;;7370851;19;20460;-68
2023/05/01 02:40:11;;;;;;;9.98;3.08;;;;;;;;;;7369939;19;20007;-69
2023/05/01 02:42:38;;;;;;;6.97;2.53;;;;;;;;;;7370983;19;20480;-69
2023/05/01 02:45:06;;;;;;;6.78;2.70;;;;;;;;;;7372011;19;20009;-69
2023/05/01 02:47:35;;;;;;;4.65;2.45;;;;;;;;;;7369734;19;20006;-70
2023/05/01 02:50:02;;;;;;;8.27;2.80;;;;;;;;;;7393955;19;20017;-68
2023/05/01 02:52:28;;;;;;;5.43;2.75;;;;;;;;;;7370534;19;20339;-68
2023/05/01 02:54:55;;;;;;;4.05;2.35;;;;;;;;;;7371603;19;20006;-69
2023/05/01 02:57:20;;;;;;;4.78;2.60;;;;;;;;;;7368942;19;20010;-70
2023/05/01 02:59:46;;;;;;;5.25;2.88;;;;;;;;;;7372552;19;20339;-70
2023/05/01 03:02:11;;;;;;;7.80;2.60;;;;;;;;;;7395577;19;20455;-69
2023/05/01 03:04:36;;;;;;;5.25;2.53;;;;;;;;;;7373355;19;20010;-69
2023/05/01 03:07:03;;;;;;;5.82;3.05;;;;;;;;;;7374418;19;20035;-69
2023/05/01 03:09:30;;;;;;;7.80;2.80;;;;;;;;;;7373658;19;20039;-69
2023/05/01 03:11:55;;;;;;;6.28;2.70;;;;;;;;;;7376389;19;20039;-69
2023/05/01 03:14:21;;;;;;;6.47;2.95;;;;;;;;;;7397538;19;19999;-69
2023/05/01 03:16:46;;;;;;;6.53;2.47;;;;;;;;;;7368325;19;20392;-69
2023/05/01 03:19:11;;;;;;;6.68;2.53;;;;;;;;;;7369661;19;20010;-69
2023/05/01 03:21:37;;;;;;;6.15;2.40;;;;;;;;;;7369865;19;20021;-69
2023/05/01 03:24:02;;;;;;;4.65;2.67;;;;;;;;;;7370581;19;20566;-70
2023/05/01 03:26:28;;;;;;;3.97;2.30;;;;;;;;;;7369302;19;20350;-71
2023/05/01 03:28:54;;;;;;;5.95;3.40;;;;;;;;;;7391456;19;20002;-69
2023/05/01 03:31:20;;;;;;;6.13;2.90;;;;;;;;;;7368522;19;20034;-69
2023/05/01 03:33:46;;;;;;;8.45;2.67;;;;;;;;;;7370219;19;20011;-68
2023/05/01 03:36:12;;;;;;;4.57;2.67;;;;;;;;;;7372951;19;20018;-69
2023/05/01 03:38:37;;;;;;;7.40;3.00;;;;;;;;;;7376064;19;19998;-69
2023/05/01 03:41:04;;;;;;;6.60;2.65;;;;;;;;;;7392349;19;20669;-69
2023/05/01 03:43:30;;;;;;;5.60;2.65;;;;;;;;;;7368340;19;20010;-68
2023/05/01 03:45:56;;;;;;;7.65;2.80;;;;;;;;;;7371367;19;20396;-70
2023/05/01 03:48:22;;;;;;;5.00;2.67;;;;;;;;;;7371076;19;20013;-68
2023/05/01 03:50:47;;;;;;;6.68;2.70;;;;;;;;;;7370098;19;20411;-68
2023/05/01 03:53:13;;;;;;;4.80;2.40;;;;;;;;;;7390347;19;20024;-68
2023/05/01 03:55:39;;;;;;;6.35;2.75;;;;;;;;;;7368433;19;20023;-69
2023/05/01 03:58:04;;;;;;;6.55;2.80;;;;;;;;;;7367712;19;20067;-69
2023/05/01 04:00:31;;;;;;;6.53;3.00;;;;;;;;;;7369213;19;20500;-68
2023/05/01 04:02:56;;;;;;;6.38;2.78;;;;;;;;;;7367439;19;20791;-69
2023/05/01 04:05:22;;;;;;;6.32;3.05;;;;;;;;;;7389728;19;20096;-68
2023/05/01 04:07:47;;;;;;;5.90;3.10;;;;;;;;;;7365730;19;20575;-68
2023/05/01 04:10:12;;;;;;;5.22;2.67;;;;;;;;;;7367538;19;20082;-69
2023/05/01 04:12:38;;;;;;;4.90;2.60;;;;;;;;;;7365920;19;20013;-69
2023/05/01 04:15:03;;;;;;;9.70;2.70;;;;;;;;;;7371865;19;20014;-69
2023/05/01 04:17:30;;;;;;;5.30;2.60;;;;;;;;;;7372902;19;20448;-70
2023/05/01 04:19:55;;;;;;;8.35;2.97;;;;;;;;;;7395673;19;20005;-68
2023/05/01 04:22:22;;;;;;;6.75;3.00;;;;;;;;;;7373804;19;20448;-69
2023/05/01 04:24:47;;;;;;;6.53;2.90;;;;;;;;;;7385982;19;20015;-68
2023/05/01 04:27:12;;;;;;;4.93;2.90;;;;;;;;;;7376728;19;20014;-68
2023/05/01 04:29:38;;;;;;;8.10;2.95;;;;;;;;;;7375693;19;20007;-69
2023/05/01 04:32:03;;;;;;;7.60;3.35;;;;;;;;;;7396314;19;19998;-68
2023/05/01 04:34:28;;;;;;;6.28;2.90;;;;;;;;;;7375225;19;20007;-68
2023/05/01 04:36:56;;;;;;;4.88;2.60;;;;;;;;;;7374103;19;20044;-68
2023/05/01 04:39:21;;;;;;;6.10;2.85;;;;;;;;;;7375425;19;20003;-68
2023/05/01 04:41:47;;;;;;;8.32;3.10;;;;;;;;;;7374846;19;20015;-69
2023/05/01 04:44:12;;;;;;;5.60;2.90;;;;;;;;;;7396363;19;20010;-69
2023/05/01 04:46:37;;;;;;;7.55;2.97;;;;;;;;;;7373445;19;20022;-68
2023/05/01 04:49:03;;;;;;;7.07;3.15;;;;;;;;;;7374541;19;20043;-68
2023/05/01 04:51:28;;;;;;;7.00;3.17;;;;;;;;;;7374025;19;20301;-69
2023/05/01 04:53:54;;;;;;;8.23;3.08;;;;;;;;;;7377838;19;20426;-69
2023/05/01 04:56:20;;;;;;;7.13;3.25;;;;;;;;;;7400808;19;20012;-69
2023/05/01 04:58:45;;;;;;;5.00;2.78;;;;;;;;;;7381913;19;20007;-69
2023/05/01 05:01:11;;;;;;;6.82;2.80;;;;;;;;;;7381712;19;20014;-69
2023/05/01 05:03:36;;;;;;;5.82;3.13;;;;;;;;;;7375462;19;20181;-69
2023/05/01 05:06:02;;;;;;;6.05;2.80;;;;;;;;;;7375979;19;20359;-69
2023/05/01 05:08:28;;;;;;;6.40;2.63;;;;;;;;;;7375882;19;20014;-69
2023/05/01 05:10:58;;;;;;;5.72;3.00;;;;;;;;;;7396341;19;20492;-69
2023/05/01 05:13:24;;;;;;;4.97;3.10;;;;;;;;;;7374210;19;20031;-69
2023/05/01 05:15:49;;;;;;;6.75;2.95;;;;;;;;;;7376189;19;20050;-69
2023/05/01 05:18:14;;;;;;;7.72;3.13;;;;;;;;;;7379137;19;20010;-69
2023/05/01 05:20:40;;;;;;;6.60;3.20;;;;;;;;;;7374833;19;20013;-68
2023/05/01 05:23:05;;;;;;;7.65;3.35;;;;;;;;;;7399673;19;20043;-70
2023/05/01 05:25:31;;;;;;;7.18;3.30;;;;;;;;;;7373466;19;20018;-70
2023/05/01 05:27:56;;;;;;;7.47;3.13;;;;;;;;;;7372841;19;20859;-69
2023/05/01 05:30:21;;;;;;;8.48;3.38;;;;;;;;;;7373619;19;20472;-69
2023/05/01 05:32:47;;;;;;;6.18;3.10;;;;;;;;;;7373166;19;20010;-69
2023/05/01 05:35:12;;;;;;;7.13;3.20;;;;;;;;;;7395121;19;20074;-69
2023/05/01 05:37:38;;;;;;;9.90;3.55;;;;;;;;;;7372737;19;20009;-69
2023/05/01 05:40:03;;;;;;;5.75;3.47;;;;;;;;;;7374021;19;20237;-69
2023/05/01 05:42:29;;;;;;;7.53;3.80;;;;;;;;;;7380113;19;20006;-68
2023/05/01 05:44:54;;;;;;;6.63;3.30;;;;;;;;;;7376738;19;20011;-69
2023/05/01 05:47:19;;;;;;;8.23;3.28;;;;;;;;;;7394266;19;20009;-68
2023/05/01 05:49:45;;;;;;;4.68;2.95;;;;;;;;;;7375141;19;20003;-70
2023/05/01 05:52:10;;;;;;;7.38;3.40;;;;;;;;;;7375212;19;20014;-69
2023/05/01 05:54:35;;;;;;;6.47;3.63;;;;;;;;;;7375596;19;20010;-68
2023/05/01 05:57:02;;;;;;;7.47;3.08;;;;;;;;;;7373934;19;20010;-68
2023/05/01 05:59:27;;;;;;;6.85;3.70;;;;;;;;;;7370228;19;20010;-68
2023/05/01 06:01:53;;;;;;;12.60;3.45;;;;;;;;;;7396079;19;20002;-67
2023/05/01 06:04:18;;;;;;;6.15;3.05;;;;;;;;;;7373957;19;20010;-69
2023/05/01 06:06:43;;;;;;;6.35;3.20;;;;;;;;;;7372865;19;20063;-70
2023/05/01 06:09:09;;;;;;;5.43;3.05;;;;;;;;;;7381421;19;20002;-70
2023/05/01 06:11:35;;;;;;;5.70;3.00;;;;;;;;;;7373465;19;20007;-71
2023/05/01 06:14:01;;;;;;;6.25;3.40;;;;;;;;;;7393724;19;19998;-68
2023/05/01 06:16:27;;;;;;;6.38;3.35;;;;;;;;;;7369227;19;20006;-69
2023/05/01 06:18:52;;;;;;;7.03;3.28;;;;;;;;;;7377341;19;20391;-71
2023/05/01 06:21:17;;;;;;;7.70;4.05;;;;;;;;;;7381670;19;20692;-69
2023/05/01 06:23:43;;;;;;;7.93;3.40;;;;;;;;;;7377888;19;20102;-67
2023/05/01 06:26:08;;;;;;;10.63;3.90;;;;;;;;;;7394531;19;19994;-70
2023/05/01 06:28:34;;;;;;;5.88;2.85;;;;;;;;;;7370077;19;20013;-70
2023/05/01 06:30:59;;;;;;;6.70;3.50;;;;;;;;;;7370623;19;20009;-68
2023/05/01 06:33:25;;;;;;;8.73;3.65;;;;;;;;;;7375060;19;20033;-68
2023/05/01 06:35:50;;;;;;;6.68;3.40;;;;;;;;;;7375781;19;20128;-67
2023/05/01 06:38:15;;;;;;;7.18;3.35;;;;;;;;;;7393962;19;20006;-67
2023/05/01 06:40:41;;;;;;;6.38;3.35;;;;;;;;;;7372686;19;20003;-66
2023/05/01 06:43:06;;;;;;;6.03;3.28;;;;;;;;;;7373501;19;20508;-67
2023/05/01 06:45:32;;;;;;;9.57;3.47;;;;;;;;;;7371650;19;20355;-68
2023/05/01 06:47:57;;;;;;;7.22;3.13;;;;;;;;;;7370897;19;20496;-68
2023/05/01 06:50:22;;;;;;;9.35;3.08;;;;;;;;;;7392646;19;20002;-69
2023/05/01 06:52:48;;;;;;;7.75;3.17;;;;;;;;;;7368788;19;20042;-68
2023/05/01 06:55:13;;;;;;;6.25;3.13;;;;;;;;;;7364785;19;20382;-68
2023/05/01 06:57:39;;;;;;;6.22;3.25;;;;;;;;;;7370822;19;20007;-69
2023/05/01 07:00:05;;;;;;;6.57;3.55;;;;;;;;;;7364356;19;20006;-68
2023/05/01 07:02:30;;;;;;;6.13;2.90;;;;;;;;;;7365994;19;20445;-68
2023/05/01 07:04:56;;;;;;;8.23;3.35;;;;;;;;;;7387905;19;20013;-67
2023/05/01 07:07:22;;;;;;;6.18;3.15;;;;;;;;;;7366802;19;20052;-69
2023/05/01 07:09:47;;;;;;;7.78;3.45;;;;;;;;;;7366756;19;20002;-69
2023/05/01 07:12:12;;;;;;;6.90;3.25;;;;;;;;;;7369961;19;20063;-67
2023/05/01 07:14:38;;;;;;;5.82;3.08;;;;;;;;;;7370051;19;20326;-68
2023/05/01 07:17:03;;;;;;;7.50;3.55;;;;;;;;;;7388694;19;20039;-68
2023/05/01 07:19:29;;;;;;;7.55;3.40;;;;;;;;;;7369514;19;20011;-68
2023/05/01 07:21:54;;;;;;;9.02;3.40;;;;;;;;;;7369483;19;20003;-69
2023/05/01 07:24:20;;;;;;;8.20;3.72;;;;;;;;;;7372084;19;20011;-69
2023/05/01 07:26:45;;;;;;;7.25;3.80;;;;;;;;;;7367412;19;20000;-69
2023/05/01 07:29:12;;;;;;;11.13;3.55;;;;;;;;;;7392324;19;20011;-66
2023/05/01 07:31:37;;;;;;;6.32;2.92;;;;;;;;;;7368239;19;20043;-69
2023/05/01 07:34:03;;;;;;;6.18;3.53;;;;;;;;;;7370066;19;20496;-70
2023/05/01 07:36:29;;;;;;;6.70;3.22;;;;;;;;;;7369495;19;20026;-69
2023/05/01 07:38:56;;;;;;;7.55;3.55;;;;;;;;;;7369575;19;20010;-68
2023/05/01 07:41:24;;;;;;;9.60;3.55;;;;;;;;;;7395488;19;20002;-68
2023/05/01 07:43:49;;;;;;;6.78;2.97;;;;;;;;;;7368993;19;20036;-68
2023/05/01 07:46:15;;;;;;;9.43;3.65;;;;;;;;;;7368447;19;20556;-69
2023/05/01 07:48:41;;;;;;;8.25;3.58;;;;;;;;;;7366711;19;20010;-69
2023/05/01 07:51:06;;;;;;;7.68;3.45;;;;;;;;;;7373396;19;20010;-69
2023/05/01 07:53:32;;;;;;;8.20;3.60;;;;;;;;;;7373208;19;20007;-70
2023/05/01 07:56:08;;;;;;;8.63;3.60;;;;;;;;;;7396171;19;20019;-71
2023/05/01 07:58:35;;;;;;;6.03;3.55;;;;;;;;;;7372665;19;20010;-70
2023/05/01 08:01:00;;;;;;;7.72;3.58;;;;;;;;;;7374666;19;20028;-70
2023/05/01 08:03:29;;;;;;;6.75;3.60;;;;;;;;;;7373422;19;20716;-69
2023/05/01 08:05:55;;;;;;;7.18;3.55;;;;;;;;;;7373603;19;20036;-69
2023/05/01 08:08:21;;;;;;;7.68;3.95;;;;;;;;;;7394469;19;20006;-72
2023/05/01 08:10:47;;;;;;;9.93;3.92;;;;;;;;;;7372050;19;20010;-69
2023/05/01 08:13:12;;;;;;;9.15;3.58;;;;;;;;;;7371861;19;20035;-69
2023/05/01 08:15:38;;;;;;;6.78;2.97;;;;;;;;;;7373257;19;20359;-69
2023/05/01 08:18:04;;;;;;;5.82;3.35;;;;;;;;;;7371131;19;20038;-69
2023/05/01 08:20:29;;;;;;;5.93;3.40;;;;;;;;;;7374245;19;20094;-69
2023/05/01 08:22:54;;;;;;;6.47;3.08;;;;;;;;;;7395160;19;20054;-68
2023/05/01 08:25:20;;;;;;;8.27;3.80;;;;;;;;;;7374056;19;20070;-68
2023/05/01 08:27:45;;;;;;;6.80;3.83;;;;;;;;;;7372661;19;20010;-68
2023/05/01 08:30:11;;;;;;;7.13;3.55;;;;;;;;;;7371799;19;20014;-69
2023/05/01 08:32:36;;;;;;;6.95;3.38;;;;;;;;;;7374255;19;20581;-69
2023/05/01 08:35:01;;;;;;;7.80;3.90;;;;;;;;;;7397181;19;20002;-67
2023/05/01 08:37:27;;;;;;;7.05;3.63;;;;;;;;;;7373101;19;20032;-68
2023/05/01 08:39:52;;;;;;;7.40;3.47;;;;;;;;;;7374380;19;20014;-69
2023/05/01 08:42:18;;;;;;;8.90;4.00;;;;;;;;;;7375404;19;20018;-68
2023/05/01 08:44:45;;;;;;;8.77;3.78;;;;;;;;;;7374061;19;20010;-68
2023/05/01 08:47:14;;;;;;;6.63;3.63;;;;;;;;;;7395135;19;20005;-69
2023/05/01 08:49:41;;;;;;;7.47;3.30;;;;;;;;;;7374699;19;20464;-71
2023/05/01 08:52:09;;;;;;;8.07;3.40;;;;;;;;;;7376080;19;20023;-69
2023/05/01 08:54:35;;;;;;;8.15;3.90;;;;;;;;;;7374957;19;20002;-69
2023/05/01 08:57:03;;;;;;;7.43;3.13;;;;;;;;;;7371595;19;20484;-71
2023/05/01 08:59:30;;;;;;;7.10;3.50;;;;;;;;;;7374458;19;20006;-69
2023/05/01 09:02:04;;;;;;;8.13;3.83;;;;;;;;;;7391883;19;20003;-69
2023/05/01 09:04:31;;;;;;;9.38;4.03;;;;;;;;;;7375334;19;20010;-70
2023/05/01 09:06:59;;;;;;;5.85;3.42;;;;;;;;;;7372077;19;20014;-69
2023/05/01 09:09:25;;;;;;;5.75;3.13;;;;;;;;;;7374749;19;20018;-69
2023/05/01 09:11:54;;;;;;;7.97;3.63;;;;;;;;;;7376774;19;20022;-70
2023/05/01 09:14:19;;;;;;;7.10;3.50;;;;;;;;;;7408361;19;20002;-68
2023/05/01 09:16:45;;;;;;;5.95;3.40;;;;;;;;;;7380604;19;20074;-69
2023/05/01 09:19:10;;;;;;;6.05;3.45;;;;;;;;;;7384577;19;20011;-68
2023/05/01 09:21:35;;;;;;;7.40;3.38;;;;;;;;;;7386463;19;20520;-70
2023/05/01 09:24:01;;;;;;;7.13;3.90;;;;;;;;;;7385195;19;20050;-69
2023/05/01 09:26:27;;;;;;;6.32;3.50;;;;;;;;;;7372704;19;20010;-71
2023/05/01 09:28:56;;;;;;;9.23;3.65;;;;;;;;;;7395346;19;20034;-69
2023/05/01 09:31:27;;;;;;;4.97;3.40;;;;;;;;;;7374586;19;20027;-68
2023/05/01 09:33:54;;;;;;;;;;;;;;;;;;7374153;19;20074;-68
2023/05/01 09:36:19;;;;;;;6.38;3.45;;;;;;;;;;7374031;19;19915;-68
2023/05/01 09:38:45;;;;;;;6.13;3.47;;;;;;;;;;7373414;19;20335;-69
2023/05/01 09:41:10;;;;;;;5.85;3.30;;;;;;;;;;7393076;19;20002;-68
2023/05/01 09:43:36;;;;;;;7.15;3.25;;;;;;;;;;7372029;19;20041;-68
2023/05/01 09:46:10;;;;;;;6.68;3.28;;;;;;;;;;7372839;19;20392;-68
2023/05/01 09:48:36;;;;;;;6.45;3.58;;;;;;;;;;7372651;19;20459;-68
2023/05/01 09:51:25;;;;;;;6.22;3.28;;;;;;;;;;7373347;19;20010;-69
2023/05/01 09:53:58;;;;;;;6.15;3.33;;;;;;;;;;7370941;19;20018;-68
2023/05/01 09:56:26;;;;;;;6.97;3.28;;;;;;;;;;7399422;19;20042;-67
2023/05/01 09:58:52;;;;;;;5.28;2.88;;;;;;;;;;7377207;19;20013;-69
2023/05/01 10:01:44;;;;;;;6.35;3.03;;;;;;;;;;7376929;19;20010;-69
2023/05/01 10:04:09;;;;;;;5.80;2.90;;;;;;;;;;7384840;19;20006;-69
2023/05/01 10:06:35;;;;;;;6.78;3.15;;;;;;;;;;7379360;19;20040;-69
2023/05/01 10:09:02;;;;;;;6.30;3.05;;;;;;;;;;7381758;19;20562;-69
2023/05/01 10:11:27;;;;;;;6.72;3.00;;;;;;;;;;7380605;19;20005;-70
2023/05/01 10:14:09;;;;;;;5.00;3.08;;;;;;;;;;7401678;19;19998;-69
2023/05/01 10:16:37;;;;;;;4.80;2.92;;;;;;;;;;7380976;19;20003;-69
2023/05/01 10:19:03;;;;;;;6.53;3.13;;;;;;;;;;7380175;19;20002;-69
2023/05/01 10:21:33;;;;;;;6.25;3.42;;;;;;;;;;7380208;19;20014;-72
2023/05/01 10:24:01;;;;;;;5.90;3.33;;;;;;;;;;7373784;19;20529;-74
2023/05/01 10:26:27;;;;;;;7.25;3.47;;;;;;;;;;7376978;19;20003;-73
2023/05/01 10:28:57;;;;;;;5.07;2.65;;;;;;;;;;7395799;19;20003;-74
2023/05/01 10:31:23;;;;;;;5.85;3.22;;;;;;;;;;7374959;19;20002;-74
2023/05/01 10:33:49;;;;;;;6.20;3.33;;;;;;;;;;7374512;19;20127;-73
2023/05/01 10:36:22;;;;;;;5.47;3.20;;;;;;;;;;7372512;19;20014;-71
2023/05/01 10:38:47;;;;;;;7.82;3.33;;;;;;;;;;7374680;19;20023;-73
2023/05/01 10:41:16;;;;;;;7.53;3.30;;;;;;;;;;7397095;19;20062;-74
2023/05/01 10:43:42;;;;;;;4.63;2.78;;;;;;;;;;7371870;19;20485;-74
2023/05/01 10:46:19;;;;;;;6.00;2.97;;;;;;;;;;7370309;19;20018;-74
2023/05/01 10:48:45;;;;;;;6.00;3.15;;;;;;;;;;7374645;19;20098;-74
2023/05/01 10:51:20;;;;;;;6.60;3.50;;;;;;;;;;7375777;19;20006;-74
2023/05/01 10:53:47;;;;;;;6.03;3.25;;;;;;;;;;7383368;19;20191;-73
2023/05/01 10:56:31;;;;;;;8.60;3.38;;;;;;;;;;7394379;19;20023;-75
2023/05/01 10:59:05;;;;;;;5.63;3.03;;;;;;;;;;7374584;19;20007;-68
2023/05/01 11:01:30;;;;;;;7.65;3.58;;;;;;;;;;7371440;19;20337;-68
2023/05/01 11:03:58;;;;;;;7.43;3.38;;;;;;;;;;7371661;19;20003;-68
2023/05/01 11:06:24;;;;;;;8.75;3.95;;;;;;;;;;7369015;19;20013;-68
2023/05/01 11:08:49;;;;;;;5.97;3.50;;;;;;;;;;7369743;19;20020;-68
2023/05/01 11:11:21;;;;;;;7.43;3.60;;;;;;;;;;7394219;19;20003;-68
2023/05/01 11:14:09;;;;;;;5.65;3.30;;;;;;;;;;7366682;19;20387;-68
2023/05/01 11:16:38;;;;;;;;;;;;;;;;;;;;;
2023/05/01 11:19:03;;;;;;;5.55;3.15;;;;;;;;;;7369475;19;20038;-67
2023/05/01 11:21:32;;;;;;;5.78;3.28;;;;;;;;;;7369014;19;20401;-67
2023/05/01 11:24:04;;;;;;;6.28;3.35;;;;;;;;;;7370032;19;19998;-67
2023/05/01 11:26:30;;;;;;;8.05;3.70;;;;;;;;;;7377032;19;20122;-68
2023/05/01 11:29:00;;;;;;;7.35;3.78;;;;;;;;;;7400289;19;19998;-67
2023/05/01 11:31:26;;;;;;;9.13;4.35;;;;;;;;;;7375832;19;20027;-73
2023/05/01 11:33:54;;;;;;;5.85;3.25;;;;;;;;;;7375807;19;20003;-66
2023/05/01 11:36:20;;;;;;;5.78;3.35;;;;;;;;;;7375535;19;20069;-67
2023/05/01 11:38:52;;;;;;;5.25;3.38;;;;;;;;;;7377468;19;20375;-67
2023/05/01 11:41:22;;;;;;;6.40;3.47;;;;;;;;;;7392551;19;20007;-70
2023/05/01 11:43:52;;;;;;;5.70;3.40;;;;;;;;;;7377453;19;20037;-69
2023/05/01 11:46:28;;;;;;;5.78;3.28;;;;;;;;;;7374855;19;20007;-69
2023/05/01 11:48:55;;;;;;;6.57;3.35;;;;;;;;;;7367571;19;20472;-69
2023/05/01 11:51:20;;;;;;;6.30;3.70;;;;;;;;;;7375394;19;20013;-69
2023/05/01 11:54:05;;;;;;;5.47;3.38;;;;;;;;;;7373675;19;20074;-68
2023/05/01 11:56:32;;;;;;;6.63;3.40;;;;;;;;;;7373296;19;20001;-69
2023/05/01 11:59:12;;;;;;;10.32;3.42;;;;;;;;;;7395704;19;19998;-69
2023/05/01 12:01:39;;;;;;;6.00;3.40;;;;;;;;;;7373553;19;20040;-69
2023/05/01 12:04:09;;;;;;;6.10;3.30;;;;;;;;;;7373488;19;20501;-69
2023/05/01 12:06:44;;;;;;;5.57;3.17;;;;;;;;;;7373039;19;20007;-72
2023/05/01 12:09:16;;;;;;;5.97;3.20;;;;;;;;;;7373828;19;20022;-69
2023/05/01 12:11:42;;;;;;;6.57;3.80;;;;;;;;;;7376025;19;20065;-69
2023/05/01 12:14:09;;;;;;;7.65;3.72;;;;;;;;;;7395186;19;19998;-68
2023/05/01 12:16:36;;;;;;;5.55;3.05;;;;;;;;;;7374513;19;20106;-68
2023/05/01 12:19:02;;;;;;;5.80;3.45;;;;;;;;;;7376571;19;20038;-69
2023/05/01 12:21:27;;;;;;;7.55;3.50;;;;;;;;;;7375143;19;20366;-68
2023/05/01 12:23:58;;;;;;;7.88;3.20;;;;;;;;;;7373124;19;20385;-68
2023/05/01 12:26:24;;;;;;;6.78;3.38;;;;;;;;;;7397442;19;20996;-67
2023/05/01 12:29:00;;;;;;;5.53;3.25;;;;;;;;;;7376723;19;20075;-67
2023/05/01 12:31:26;;;;;;;6.82;3.03;;;;;;;;;;7370530;19;20039;-68
2023/05/01 12:34:01;;;;;;;8.00;3.10;;;;;;;;;;7368825;19;20006;-68
2023/05/01 12:36:28;;;;;;;5.90;3.38;;;;;;;;;;7366887;19;20105;-68
2023/05/01 12:39:03;;;;;;;5.80;3.50;;;;;;;;;;7369609;19;20006;-68
2023/05/01 12:41:36;;;;;;;7.50;3.13;;;;;;;;;;7369501;19;20002;-68
2023/05/01 12:44:21;;;;;;;6.18;3.25;;;;;;;;;;7394417;19;20003;-68
2023/05/01 12:46:52;;;;;;;6.45;3.17;;;;;;;;;;7370788;19;20017;-68
2023/05/01 12:49:21;;;;;;;6.43;3.58;;;;;;;;;;7370915;19;20018;-69
2023/05/01 12:51:48;;;;;;;6.80;2.97;;;;;;;;;;7374877;19;20014;-69
2023/05/01 12:54:28;;;;;;;6.18;3.17;;;;;;;;;;7373210;19;20035;-69
2023/05/01 12:57:04;;;;;;;5.78;2.70;;;;;;;;;;7371446;19;20010;-70
2023/05/01 12:59:30;;;;;;;6.78;3.30;;;;;;;;;;7374821;19;20003;-69
2023/05/01 13:02:00;;;;;;;4.03;2.72;;;;;;;;;;7396010;19;20017;-67
2023/05/01 13:04:26;;;;;;;6.47;2.93;;;;;;;;;;7373220;19;20007;-68
2023/05/01 13:06:54;;;;;;;8.93;3.38;;;;;;;;;;7374185;19;20086;-67
2023/05/01 13:09:21;;;;;;;5.03;3.03;;;;;;;;;;7372978;19;20503;-68
2023/05/01 13:12:01;;;;;;;7.75;3.58;;;;;;;;;;7373946;19;20109;-67
2023/05/01 13:14:37;;;;;;;5.93;3.42;;;;;;;;;;7377955;19;20359;-66
2023/05/01 13:17:05;;;;;;;4.85;3.10;;;;;;;;;;7396899;19;20007;-66
2023/05/01 13:19:30;;;;;;;7.25;3.50;;;;;;;;;;7382976;19;20002;-66
2023/05/01 13:21:56;;;;;;;5.07;2.95;;;;;;;;;;7379826;19;20002;-68
2023/05/01 13:24:23;;;;;;;4.95;3.00;;;;;;;;;;7372714;19;20006;-67
2023/05/01 13:26:59;;;;;;;5.38;3.10;;;;;;;;;;7373138;19;20013;-70
2023/05/01 13:29:25;;;;;;;4.78;2.78;;;;;;;;;;7394405;19;20002;-68
2023/05/01 13:31:51;;;;;;;6.07;2.97;;;;;;;;;;7372329;19;20006;-68
2023/05/01 13:34:21;;;;;;;4.93;2.83;;;;;;;;;;7371093;19;20578;-67
2023/05/01 13:36:46;;;;;;;6.55;3.00;;;;;;;;;;7369749;19;20477;-68
2023/05/01 13:39:18;;;;;;;5.07;2.90;;;;;;;;;;7374849;19;20010;-68
2023/05/01 13:41:43;;;;;;;4.55;2.58;;;;;;;;;;7373910;19;20010;-68
2023/05/01 13:44:09;;;;;;;8.60;3.05;;;;;;;;;;7397014;19;20012;-67
2023/05/01 13:46:34;;;;;;;4.78;2.70;;;;;;;;;;7374611;19;20035;-69
2023/05/01 13:49:03;;;;;;;4.35;2.75;;;;;;;;;;7375898;19;20295;-68
2023/05/01 13:51:31;;;;;;;7.53;2.90;;;;;;;;;;7373599;19;20007;-67
2023/05/01 13:53:57;;;;;;;4.05;2.47;;;;;;;;;;7371471;19;20013;-67
2023/05/01 13:56:22;;;;;;;5.50;3.17;;;;;;;;;;7389762;19;20003;-68
2023/05/01 13:58:48;;;;;;;7.03;3.30;;;;;;;;;;7368235;19;20017;-65
2023/05/01 14:01:19;;;;;;;5.22;3.13;;;;;;;;;;7361745;19;20010;-67
2023/05/01 14:03:44;;;;;;;5.03;3.10;;;;;;;;;;7366245;19;20083;-69
2023/05/01 14:06:20;;;;;;;6.85;2.97;;;;;;;;;;7371907;19;19998;-67
2023/05/01 14:08:47;;;;;;;4.82;2.95;;;;;;;;;;7373359;19;20434;-69
2023/05/01 14:11:13;;;;;;;5.50;3.08;;;;;;;;;;7391872;19;20027;-69
2023/05/01 14:13:40;;;;;;;5.80;3.35;;;;;;;;;;7364745;19;20015;-68
2023/05/01 14:16:10;;;;;;;5.22;2.95;;;;;;;;;;7370620;19;20018;-67
2023/05/01 14:18:42;;;;;;;5.45;3.20;;;;;;;;;;7370855;19;20014;-66
2023/05/01 14:21:08;;;;;;;7.20;2.90;;;;;;;;;;7371222;19;20118;-66
2023/05/01 14:23:34;;;;;;;4.45;2.75;;;;;;;;;;7370509;19;20672;-65
2023/05/01 14:25:59;;;;;;;6.25;2.60;;;;;;;;;;7390197;19;20014;-68
2023/05/01 14:28:25;;;;;;;4.45;2.58;;;;;;;;;;7368501;19;20010;-66
2023/05/01 14:30:53;;;;;;;3.17;2.10;;;;;;;;;;7372000;19;20354;-66
2023/05/01 14:33:19;;;;;;;7.50;3.00;;;;;;;;;;7369586;19;20473;-66
2023/05/01 14:35:49;;;;;;;5.28;2.72;;;;;;;;;;7374087;19;20018;-64
2023/05/01 14:38:16;;;;;;;5.13;2.80;;;;;;;;;;7390237;19;20002;-65
2023/05/01 14:40:43;;;;;;;4.30;2.60;;;;;;;;;;7370762;19;20418;-65
2023/05/01 14:43:20;;;;;;;4.00;2.40;;;;;;;;;;7369696;19;20018;-65
2023/05/01 14:45:47;;;;;;;4.85;2.70;;;;;;;;;;7369985;19;20006;-65
2023/05/01 14:48:20;;;;;;;5.60;2.88;;;;;;;;;;7367916;19;20010;-65